Time;durP1;ratioP1;P1;durP2;ratioP2;P2;SDS_P1;SDS_P2;PMS_P1;PMS_P2;Temp;Humidity;BMP_temperature;BMP_pressure;BME280_temperature;BME280_humidity;BME280_pressure;Samples;Min_cycle;Max_cycle;Signal;HPM_P1;HPM_P2
2021/12/05 00:22:41;;;;;;;1.02;1.02;;;;;;;4.28;79.62;99368.59;5162999;28;20034;-80
2021/12/05 00:25:24;;;;;;;0.50;0.50;;;;;;;4.28;79.40;99359.94;5118458;28;20026;-79
2021/12/05 00:28:21;;;;;;;0.80;0.80;;;;;;;4.36;79.68;99369.25;5156730;28;20219;-78
2021/12/05 00:31:23;;;;;;;1.30;1.20;;;;;;;4.38;78.79;99369.25;5131948;28;20050;-78
2021/12/05 01:04:25;;;;;;;4.30;1.10;;;;;;;4.53;78.66;99373.19;5134831;28;20054;-79
2021/12/05 01:15:08;;;;;;;0.40;0.40;;;;;;;4.34;78.12;99381.41;5131235;28;20035;-79
2021/12/05 01:20:32;;;;;;;18.92;2.50;;;;;;;4.47;78.45;99381.16;5130633;28;20039;-79
2021/12/05 01:23:24;;;;;;;0.50;0.50;;;;;;;4.41;79.52;99379.53;5132223;28;20026;-79
2021/12/05 01:26:31;;;;;;;0.50;0.50;;;;;;;4.20;78.93;99386.06;5134640;28;20095;-80
2021/12/05 02:32:52;;;;;;;0.70;0.70;;;;;;;4.26;78.59;99401.50;5131203;28;20101;-78
2021/12/05 02:43:30;;;;;;;0.82;0.82;;;;;;;4.35;78.36;99411.69;5137323;28;20577;-78
2021/12/05 02:46:04;;;;;;;5.50;1.60;;;;;;;4.19;78.19;99406.00;5114343;28;20130;-78
2021/12/05 02:48:37;;;;;;;0.50;0.50;;;;;;;4.37;78.19;99401.28;5128777;28;20033;-79
2021/12/05 02:51:15;;;;;;;0.40;0.40;;;;;;;4.32;77.97;99395.31;5135288;28;20515;-78
2021/12/05 02:53:55;;;;;;;1.80;1.70;;;;;;;4.39;78.28;99394.28;5114542;28;20055;-79
2021/12/05 02:56:27;;;;;;;0.80;0.80;;;;;;;4.33;77.46;99390.13;5152046;28;20466;-78
2021/12/05 02:59:05;;;;;;;0.73;0.70;;;;;;;4.30;78.46;99385.00;5126824;28;20209;-77
2021/12/05 03:01:42;;;;;;;0.50;0.50;;;;;;;4.38;78.33;99388.25;5117060;28;20023;-77
2021/12/05 03:04:12;;;;;;;0.50;0.50;;;;;;;4.46;78.01;99384.63;5145260;28;20042;-79
2021/12/05 03:06:53;;;;;;;0.40;0.40;;;;;;;4.40;77.92;99385.63;5132606;28;20152;-79
2021/12/05 03:09:23;;;;;;;0.50;0.50;;;;;;;4.40;77.90;99386.50;5150080;28;20043;-78
2021/12/05 03:11:54;;;;;;;0.43;0.43;;;;;;;4.34;77.83;99388.38;5147142;28;20053;-78
2021/12/05 03:14:25;;;;;;;0.45;0.45;;;;;;;4.33;78.06;99377.13;5148580;28;20070;-79
2021/12/05 03:16:56;;;;;;;1.15;1.15;;;;;;;4.19;78.10;99379.16;5132833;28;20214;-78
2021/12/05 03:19:27;;;;;;;0.55;0.55;;;;;;;4.36;78.28;99381.41;5161461;28;20167;-78
2021/12/05 03:21:57;;;;;;;1.55;1.45;;;;;;;4.25;77.92;99379.06;5145937;28;20120;-79
2021/12/05 03:24:30;;;;;;;0.40;0.40;;;;;;;4.14;76.75;99373.25;5133978;28;20674;-78
2021/12/05 03:27:01;;;;;;;0.50;0.50;;;;;;;4.27;78.12;99374.66;5146872;28;20050;-79
2021/12/05 03:29:32;;;;;;;0.70;0.70;;;;;;;4.21;77.61;99380.00;5143217;28;20098;-79
2021/12/05 03:32:03;;;;;;;0.43;0.43;;;;;;;4.28;78.10;99370.34;5136334;28;20560;-78
2021/12/05 03:34:33;;;;;;;0.45;0.45;;;;;;;4.23;77.66;99368.69;5163489;28;20102;-78
2021/12/05 03:37:05;;;;;;;0.50;0.50;;;;;;;4.27;77.73;99371.22;5131608;28;20047;-78
2021/12/05 03:39:37;;;;;;;1.92;1.83;;;;;;;4.31;77.21;99365.94;5149207;28;20053;-78
2021/12/05 03:42:08;;;;;;;0.50;0.50;;;;;;;4.24;78.12;99366.97;5139278;28;20042;-78
2021/12/05 03:44:40;;;;;;;0.50;0.50;;;;;;;4.07;77.71;99356.94;5149154;28;20057;-78
2021/12/05 03:47:11;;;;;;;0.70;0.70;;;;;;;4.03;77.82;99361.34;5135177;28;20601;-79
2021/12/05 03:49:42;;;;;;;0.50;0.50;;;;;;;4.16;77.74;99356.72;5165159;28;20053;-78
2021/12/05 03:52:16;;;;;;;0.57;0.57;;;;;;;4.14;77.80;99360.25;5122842;28;20038;-77
2021/12/05 03:54:47;;;;;;;0.52;0.52;;;;;;;4.16;77.18;99356.72;5145747;28;20518;-78
2021/12/05 03:57:18;;;;;;;1.50;1.40;;;;;;;4.12;77.19;99364.63;5134451;28;20030;-77
2021/12/05 03:59:48;;;;;;;0.40;0.40;;;;;;;4.22;77.10;99360.94;5135886;28;20047;-77
2021/12/05 04:02:22;;;;;;;3.92;1.20;;;;;;;4.10;76.87;99352.53;5155944;28;20022;-77
2021/12/05 04:04:52;;;;;;;1.50;1.40;;;;;;;4.12;77.56;99359.44;5148613;28;20049;-77
2021/12/05 04:07:23;;;;;;;0.50;0.50;;;;;;;4.03;77.43;99355.31;5155273;28;20094;-78
2021/12/05 04:09:54;;;;;;;0.40;0.40;;;;;;;4.17;77.01;99360.19;5119256;28;20131;-79
2021/12/05 04:12:24;;;;;;;2.83;2.35;;;;;;;4.03;76.98;99357.91;5163676;28;20046;-78
2021/12/05 04:14:55;;;;;;;0.88;0.80;;;;;;;4.03;77.10;99361.34;5150065;28;20755;-78
2021/12/05 04:17:25;;;;;;;0.82;0.82;;;;;;;4.14;77.33;99358.50;5125711;28;20030;-77
2021/12/05 04:19:57;;;;;;;1.55;1.45;;;;;;;4.33;77.44;99350.31;5134394;28;20081;-78
2021/12/05 04:22:27;;;;;;;0.68;0.68;;;;;;;4.31;77.40;99350.34;5139682;28;20035;-78
2021/12/05 04:25:01;;;;;;;0.50;0.50;;;;;;;4.27;77.58;99353.88;5153061;28;20042;-79
2021/12/05 04:27:32;;;;;;;0.40;0.40;;;;;;;4.26;77.42;99352.19;5150817;28;20117;-79
2021/12/05 04:30:06;;;;;;;0.40;0.40;;;;;;;4.22;77.15;99355.75;5129620;28;20533;-80
2021/12/05 04:32:37;;;;;;;0.50;0.50;;;;;;;4.20;77.57;99348.00;5132658;28;20031;-80
2021/12/05 04:35:08;;;;;;;0.40;0.40;;;;;;;4.29;77.91;99353.88;5134278;28;20169;-78
2021/12/05 04:37:38;;;;;;;0.50;0.50;;;;;;;4.27;77.32;99351.28;5135411;28;20035;-80
2021/12/05 04:40:10;;;;;;;0.40;0.40;;;;;;;4.28;77.40;99350.41;5130204;28;20145;-79
2021/12/05 04:42:41;;;;;;;0.47;0.47;;;;;;;4.31;77.20;99365.06;5128141;28;20555;-80
2021/12/05 04:45:17;;;;;;;0.40;0.40;;;;;;;4.30;77.36;99353.81;5147497;28;20073;-79
2021/12/05 04:47:48;;;;;;;0.65;0.65;;;;;;;4.32;77.07;99354.66;5118336;28;20457;-78
2021/12/05 04:50:19;;;;;;;0.88;0.88;;;;;;;4.29;76.85;99356.47;5135170;28;20517;-82
2021/12/05 04:52:51;;;;;;;0.47;0.47;;;;;;;4.35;76.84;99361.50;5130816;28;20089;-78
2021/12/05 04:55:24;;;;;;;0.40;0.40;;;;;;;4.15;76.60;99361.97;5133264;28;20063;-78
2021/12/05 04:57:54;;;;;;;0.50;0.50;;;;;;;4.19;76.76;99366.19;5134508;28;20041;-79
2021/12/05 05:00:30;;;;;;;0.60;0.60;;;;;;;4.05;76.81;99363.94;5131978;28;20039;-80
2021/12/05 05:03:01;;;;;;;0.40;0.40;;;;;;;4.10;76.68;99360.31;5162070;28;20041;-78
2021/12/05 05:05:33;;;;;;;0.60;0.60;;;;;;;3.90;75.94;99365.94;5132277;28;20054;-80
2021/12/05 05:08:04;;;;;;;0.57;0.57;;;;;;;4.09;76.59;99356.00;5159718;28;20046;-79
2021/12/05 05:10:35;;;;;;;3.70;2.20;;;;;;;4.18;76.39;99362.75;5131186;28;20038;-79
2021/12/05 05:13:05;;;;;;;0.50;0.50;;;;;;;4.13;76.18;99364.63;5139586;28;20031;-80
2021/12/05 05:15:36;;;;;;;0.47;0.47;;;;;;;3.93;76.56;99365.88;5122873;28;20038;-80
2021/12/05 05:18:11;;;;;;;0.70;0.70;;;;;;;4.13;76.50;99366.34;5143958;28;20280;-78
2021/12/05 05:20:53;;;;;;;0.43;0.43;;;;;;;4.18;77.07;99361.88;5135912;28;20039;-78
2021/12/05 05:24:00;;;;;;;0.75;0.75;;;;;;;4.17;76.86;99358.44;5128432;28;20947;-80
2021/12/05 05:41:38;;;;;;;0.47;0.47;;;;;;;4.17;76.98;99383.56;5144914;28;20122;-79
2021/12/05 05:49:31;;;;;;;1.55;1.13;;;;;;;4.26;76.51;99398.91;5144601;28;20038;-80
2021/12/05 05:52:03;;;;;;;0.95;0.95;;;;;;;4.23;76.99;99401.59;5146114;28;20037;-80
2021/12/05 05:54:33;;;;;;;0.50;0.50;;;;;;;4.23;76.73;99399.84;5144979;28;20047;-80
2021/12/05 05:57:16;;;;;;;0.43;0.43;;;;;;;4.24;76.79;99395.53;5128281;28;20042;-80
2021/12/05 06:00:31;;;;;;;0.60;0.60;;;;;;;4.27;76.54;99398.03;5142623;28;20125;-80
2021/12/05 06:05:34;;;;;;;0.45;0.45;;;;;;;4.10;76.78;99401.00;5141542;28;20082;-81
2021/12/05 06:08:05;;;;;;;0.40;0.40;;;;;;;4.15;77.06;99396.56;5106993;29;20043;-79
2021/12/05 06:10:35;;;;;;;0.50;0.50;;;;;;;4.12;76.61;99386.25;5138594;28;20043;-80
2021/12/05 06:13:06;;;;;;;0.50;0.50;;;;;;;4.08;76.94;99395.88;5132849;28;20030;-80
2021/12/05 06:15:37;;;;;;;0.40;0.40;;;;;;;4.09;77.10;99401.91;5113353;28;20144;-77
2021/12/05 06:18:07;;;;;;;0.50;0.50;;;;;;;4.00;76.37;99402.97;5116688;28;20114;-80
2021/12/05 06:20:39;;;;;;;0.82;0.82;;;;;;;4.05;77.08;99400.28;5129606;28;20034;-78
2021/12/05 06:23:11;;;;;;;0.40;0.40;;;;;;;4.05;77.05;99395.91;5134038;28;20061;-78
2021/12/05 06:25:49;;;;;;;0.50;0.50;;;;;;;4.09;76.89;99396.69;5145679;28;20046;-76
2021/12/05 06:28:28;;;;;;;0.40;0.40;;;;;;;4.05;76.50;99400.28;5143736;28;20035;-81
2021/12/05 06:42:32;;;;;;;0.50;0.50;;;;;;;4.01;76.45;99404.63;5136430;28;20027;-77
2021/12/05 06:47:49;;;;;;;0.70;0.70;;;;;;;4.05;76.75;99410.66;5138851;28;20468;-76
2021/12/05 06:50:20;;;;;;;0.40;0.40;;;;;;;4.09;76.59;99413.13;5137632;28;20039;-77
2021/12/05 06:52:51;;;;;;;0.40;0.40;;;;;;;4.04;76.47;99422.75;5133967;28;20038;-78
2021/12/05 06:55:21;;;;;;;0.50;0.50;;;;;;;4.07;76.77;99425.31;5140497;28;20083;-77
2021/12/05 06:57:52;;;;;;;6.70;1.67;;;;;;;4.04;76.88;99422.75;5116385;28;20018;-78
2021/12/05 07:00:26;;;;;;;0.40;0.40;;;;;;;4.07;76.78;99430.50;5140477;28;20053;-77
2021/12/05 07:02:57;;;;;;;0.50;0.50;;;;;;;4.07;77.04;99430.50;5148524;28;20030;-78
2021/12/05 07:08:15;;;;;;;0.40;0.40;;;;;;;4.08;77.11;99432.19;5147445;28;20081;-77
2021/12/05 07:10:52;;;;;;;0.50;0.50;;;;;;;4.05;77.32;99432.25;5141663;28;20061;-78
2021/12/05 07:18:45;;;;;;;0.50;0.50;;;;;;;4.12;76.78;99442.50;5129716;28;20054;-79
2021/12/05 07:21:48;;;;;;;0.68;0.68;;;;;;;4.15;77.14;99434.66;5124672;28;20038;-79
2021/12/05 07:24:43;;;;;;;0.40;0.40;;;;;;;4.16;77.02;99436.38;5128803;28;20047;-80
2021/12/05 07:44:21;;;;;;;0.40;0.40;;;;;;;4.27;77.10;99456.91;5135257;28;20042;-80
2021/12/05 07:46:52;;;;;;;0.60;0.60;;;;;;;4.32;76.92;99455.94;5146785;28;20070;-80
2021/12/05 07:49:22;;;;;;;0.40;0.40;;;;;;;4.28;77.91;99458.63;5121838;28;20492;-77
2021/12/05 07:51:53;;;;;;;0.68;0.68;;;;;;;4.31;77.35;99462.00;5109722;28;20031;-79
2021/12/05 07:54:34;;;;;;;;;;;;;;;;;;;;;
2021/12/05 07:57:17;;;;;;;0.50;0.50;;;;;;;4.33;77.44;99468.03;5127500;28;20114;-81
2021/12/05 08:16:47;;;;;;;0.70;0.70;;;;;;;4.49;77.35;99483.28;5145248;28;20046;-80
2021/12/05 08:19:20;;;;;;;0.50;0.50;;;;;;;4.43;77.64;99491.19;5126858;28;20177;-77
2021/12/05 08:21:55;;;;;;;3.10;1.45;;;;;;;4.52;77.82;99497.06;5127721;28;20034;-79
2021/12/05 08:24:33;;;;;;;0.50;0.50;;;;;;;4.46;76.71;99493.72;5142142;28;20043;-79
2021/12/05 08:27:05;;;;;;;0.50;0.50;;;;;;;4.53;77.49;99496.16;5130532;28;20023;-77
2021/12/05 08:29:51;;;;;;;0.50;0.50;;;;;;;4.56;77.37;99495.22;5167079;28;20110;-79
2021/12/05 09:22:51;;;;;;;;;;;;;;;;;;;;;
2021/12/05 09:27:54;;;;;;;1.77;1.48;;;;;;;4.80;77.84;99550.16;5139911;28;20025;-76
2021/12/05 10:16:14;;;;;;;1.35;1.25;;;;;;;4.92;76.83;99591.44;5140651;28;20290;-77
2021/12/05 10:36:20;;;;;;;0.50;0.50;;;;;;;4.90;77.26;99614.03;5118318;28;20039;-80
2021/12/05 10:38:54;;;;;;;0.70;0.70;;;;;;;4.86;77.94;99620.19;5121320;28;20101;-79
2021/12/05 10:44:07;;;;;;;0.65;0.65;;;;;;;5.00;77.40;99615.53;5154279;28;20093;-79
2021/12/05 10:46:44;;;;;;;0.40;0.40;;;;;;;4.93;77.95;99613.13;5122059;28;20035;-79
2021/12/05 10:49:16;;;;;;;0.60;0.60;;;;;;;4.99;77.79;99613.84;5119341;28;20043;-80
2021/12/05 10:51:57;;;;;;;0.60;0.60;;;;;;;5.16;77.63;99617.81;5131942;28;20074;-79
2021/12/05 10:54:28;;;;;;;0.82;0.82;;;;;;;5.17;77.21;99612.56;5118398;28;20529;-79
2021/12/05 10:57:03;;;;;;;0.80;0.80;;;;;;;5.12;77.87;99610.97;5140215;28;20031;-79
2021/12/05 10:59:39;;;;;;;1.00;1.00;;;;;;;5.11;78.28;99611.84;5136113;28;20042;-80
2021/12/05 11:02:14;;;;;;;1.38;1.25;;;;;;;5.22;78.12;99615.06;5134435;28;20584;-81
2021/12/05 11:04:47;;;;;;;0.60;0.60;;;;;;;5.19;78.04;99609.94;5119537;28;20045;-80
2021/12/05 11:07:21;;;;;;;1.20;1.17;;;;;;;5.24;78.41;99612.41;5117963;28;20500;-81
2021/12/05 11:09:57;;;;;;;0.40;0.40;;;;;;;5.25;78.46;99608.94;5135443;28;20047;-79
2021/12/05 11:12:33;;;;;;;0.43;0.43;;;;;;;5.26;77.93;99621.06;5152383;28;20022;-80
2021/12/05 11:15:11;;;;;;;0.55;0.55;;;;;;;5.21;78.39;99613.34;5131803;28;20049;-79
2021/12/05 11:17:46;;;;;;;0.50;0.50;;;;;;;5.31;78.49;99611.38;5136467;28;20109;-81
2021/12/05 11:20:29;;;;;;;1.13;1.13;;;;;;;5.31;78.54;99613.97;5134778;28;20035;-82
2021/12/05 11:23:00;;;;;;;0.90;0.90;;;;;;;5.36;78.03;99617.34;5152486;28;20031;-79
2021/12/05 11:25:38;;;;;;;0.50;0.50;;;;;;;5.41;78.26;99619.84;5135058;28;20074;-80
2021/12/05 11:28:11;;;;;;;0.50;0.50;;;;;;;5.45;78.53;99617.13;5136518;28;20485;-81
2021/12/05 11:30:44;;;;;;;0.50;0.50;;;;;;;5.48;77.77;99621.41;5135944;28;20042;-80
2021/12/05 11:33:20;;;;;;;0.50;0.50;;;;;;;5.40;77.85;99618.13;5131379;28;20044;-79
2021/12/05 11:35:56;;;;;;;0.50;0.50;;;;;;;5.41;77.82;99622.44;5139467;28;20489;-80
2021/12/05 11:38:33;;;;;;;0.43;0.43;;;;;;;5.54;78.10;99626.47;5134910;28;20034;-80
2021/12/05 11:41:18;;;;;;;3.20;1.15;;;;;;;5.55;77.79;99625.56;5115446;28;20031;-79
2021/12/05 11:44:00;;;;;;;0.77;0.77;;;;;;;5.58;77.36;99627.25;5139595;28;20141;-80
2021/12/05 11:46:35;;;;;;;0.43;0.43;;;;;;;5.59;76.71;99629.78;5132613;28;20026;-80
2021/12/05 11:49:10;;;;;;;0.50;0.50;;;;;;;5.73;76.34;99628.63;5133705;28;20513;-81
2021/12/05 11:51:44;;;;;;;0.40;0.40;;;;;;;5.78;76.52;99635.44;5129449;28;20116;-80
2021/12/05 11:54:21;;;;;;;0.60;0.60;;;;;;;5.77;77.09;99633.72;5117223;28;20051;-78
2021/12/05 11:56:57;;;;;;;0.60;0.60;;;;;;;5.81;76.53;99635.34;5138847;28;20038;-80
2021/12/05 11:59:47;;;;;;;0.40;0.40;;;;;;;5.81;74.84;99639.69;5138360;28;20054;-81
2021/12/05 12:02:29;;;;;;;0.50;0.50;;;;;;;5.78;75.78;99630.22;5123634;28;20109;-78
2021/12/05 12:05:09;;;;;;;1.27;1.00;;;;;;;5.82;74.73;99626.63;5122502;28;20611;-77
2021/12/05 12:07:44;;;;;;;0.50;0.50;;;;;;;5.79;73.90;99637.13;5150936;28;20694;-77
2021/12/05 12:10:17;;;;;;;0.63;0.63;;;;;;;5.88;75.71;99638.66;5136824;28;20490;-78
2021/12/05 12:12:50;;;;;;;0.55;0.55;;;;;;;5.78;73.81;99635.44;5137773;28;20034;-80
2021/12/05 12:15:24;;;;;;;0.50;0.50;;;;;;;5.80;73.12;99641.44;5138616;28;20504;-80
2021/12/05 12:18:04;;;;;;;0.65;0.65;;;;;;;5.87;74.57;99636.94;5146233;28;20042;-81
2021/12/05 12:20:38;;;;;;;0.50;0.50;;;;;;;5.90;75.07;99636.00;5108868;28;20501;-79
2021/12/05 12:23:09;;;;;;;0.50;0.50;;;;;;;5.91;75.82;99635.94;5128896;28;20034;-80
2021/12/05 12:25:40;;;;;;;0.50;0.50;;;;;;;5.93;75.84;99639.38;5134722;28;20042;-81
2021/12/05 12:28:11;;;;;;;0.60;0.60;;;;;;;5.98;74.85;99636.66;5164566;28;20117;-78
2021/12/05 12:30:45;;;;;;;0.47;0.47;;;;;;;6.00;74.74;99634.91;5120795;28;20158;-81
2021/12/05 12:33:20;;;;;;;0.70;0.70;;;;;;;6.07;74.89;99636.47;5133882;28;20066;-79
2021/12/05 12:35:52;;;;;;;0.50;0.50;;;;;;;6.11;73.39;99637.22;5119884;28;20043;-80
2021/12/05 12:38:36;;;;;;;0.40;0.40;;;;;;;6.14;74.32;99639.78;5118249;28;20034;-79
2021/12/05 12:41:17;;;;;;;2.08;1.42;;;;;;;6.10;72.76;99635.53;5118274;28;20049;-79
2021/12/05 12:44:07;;;;;;;0.40;0.40;;;;;;;6.17;75.24;99638.81;5135877;28;20038;-79
2021/12/05 12:46:40;;;;;;;0.50;0.50;;;;;;;6.17;73.88;99649.25;5107518;28;20035;-80
2021/12/05 12:49:14;;;;;;;;;;;;;;;6.20;74.67;99652.63;5136594;28;20042;-79
2021/12/05 12:51:50;;;;;;;0.40;0.40;;;;;;;6.18;73.28;99658.78;5134749;28;20429;-81
2021/12/05 12:54:33;;;;;;;0.60;0.60;;;;;;;6.17;74.63;99660.50;5107716;28;20058;-79
2021/12/05 12:57:22;;;;;;;0.50;0.50;;;;;;;6.17;72.16;99667.47;5153102;28;20497;-79
2021/12/05 13:00:06;;;;;;;0.50;0.50;;;;;;;6.14;71.82;99660.59;5120889;28;20514;-81
2021/12/05 13:07:19;;;;;;;1.10;0.90;;;;;;;6.19;72.51;99671.75;5119719;28;20046;-79
2021/12/05 13:11:52;;;;;;;0.50;0.50;;;;;;;6.25;73.60;99675.94;5153997;28;20112;-78
2021/12/05 13:14:23;;;;;;;0.30;0.30;;;;;;;6.28;74.69;99681.94;5136313;28;20098;-77
2021/12/05 13:16:54;;;;;;;0.40;0.40;;;;;;;6.32;73.03;99684.47;5117365;28;20030;-78
2021/12/05 13:19:29;;;;;;;0.88;0.88;;;;;;;6.18;72.89;99680.44;5137251;28;20043;-79
2021/12/05 13:22:07;;;;;;;0.40;0.40;;;;;;;6.27;75.31;99680.22;5124727;28;20073;-78
2021/12/05 13:24:44;;;;;;;0.40;0.40;;;;;;;6.34;75.39;99680.06;5137329;28;20045;-78
2021/12/05 13:27:27;;;;;;;0.47;0.47;;;;;;;6.25;75.09;99687.22;5138228;28;20031;-79
2021/12/05 13:29:59;;;;;;;0.50;0.50;;;;;;;6.31;75.24;99691.41;5103804;28;20043;-81
2021/12/05 13:32:31;;;;;;;0.52;0.52;;;;;;;6.25;74.00;99687.22;5119940;28;20054;-80
2021/12/05 13:35:08;;;;;;;0.70;0.70;;;;;;;6.28;74.17;99681.94;5123949;28;20042;-83
2021/12/05 13:37:49;;;;;;;0.40;0.40;;;;;;;6.42;75.92;99685.91;5143330;28;20030;-81
2021/12/05 13:40:23;;;;;;;0.40;0.40;;;;;;;6.40;75.81;99693.78;5121548;28;20078;-80
2021/12/05 13:43:00;;;;;;;0.40;0.40;;;;;;;6.45;75.90;99693.66;5124499;28;20038;-80
2021/12/05 13:45:42;;;;;;;0.75;0.73;;;;;;;6.53;74.84;99704.72;5122265;28;20810;-80
2021/12/05 13:48:25;;;;;;;0.95;0.95;;;;;;;6.49;76.07;99704.84;5118525;28;20410;-80
2021/12/05 13:50:58;;;;;;;0.50;0.50;;;;;;;6.41;73.06;99712.88;5134405;28;20034;-79
2021/12/05 13:53:33;;;;;;;0.50;0.50;;;;;;;6.41;73.79;99723.28;5120952;28;20118;-79
2021/12/05 13:56:08;;;;;;;0.40;0.40;;;;;;;6.49;74.66;99721.34;5118861;28;20129;-81
2021/12/05 13:58:40;;;;;;;0.50;0.50;;;;;;;6.37;74.41;99726.88;5121277;28;20035;-79
2021/12/05 14:01:29;;;;;;;0.40;0.40;;;;;;;6.52;74.96;99736.06;5122187;28;20034;-79
2021/12/05 14:04:07;;;;;;;0.43;0.43;;;;;;;6.34;74.84;99742.59;5156525;28;20042;-79
2021/12/05 14:06:52;;;;;;;0.68;0.68;;;;;;;6.42;75.46;99735.41;5128551;28;20130;-79
2021/12/05 14:09:47;;;;;;;0.50;0.50;;;;;;;6.56;75.49;99746.38;5120753;28;20042;-80
2021/12/05 14:12:31;;;;;;;0.40;0.40;;;;;;;6.50;74.83;99741.28;5138090;28;20030;-80
2021/12/05 14:15:06;;;;;;;;;;;;;;;6.41;75.96;99749.34;5121214;28;20105;-79
2021/12/05 14:17:41;;;;;;;0.55;0.55;;;;;;;6.36;75.60;99751.22;5104889;28;19918;-83
2021/12/05 14:20:13;;;;;;;9.85;1.63;;;;;;;6.40;75.33;99761.53;5131873;28;20042;-79
2021/12/05 14:22:48;;;;;;;0.45;0.45;;;;;;;6.40;75.97;99763.28;5108819;28;20517;-79
2021/12/05 14:25:22;;;;;;;0.40;0.40;;;;;;;6.53;75.75;99775.09;5121515;28;20045;-79
2021/12/05 14:28:01;;;;;;;0.40;0.40;;;;;;;6.52;75.46;99775.16;5105725;28;20034;-79
2021/12/05 14:30:34;;;;;;;2.65;1.38;;;;;;;6.49;75.07;99781.28;5118212;28;20039;-79
2021/12/05 14:33:06;;;;;;;0.50;0.50;;;;;;;6.38;75.84;99785.91;5129169;28;20607;-78
2021/12/05 14:35:41;;;;;;;0.50;0.50;;;;;;;6.44;76.03;99793.56;5102236;28;20821;-78
2021/12/05 14:38:11;;;;;;;0.50;0.50;;;;;;;6.46;75.01;99794.41;5136868;28;20038;-79
2021/12/05 14:40:43;;;;;;;0.40;0.40;;;;;;;6.50;75.93;99806.44;5117711;28;20053;-77
2021/12/05 14:43:19;;;;;;;0.40;0.40;;;;;;;6.50;75.61;99809.06;5123619;28;20031;-79
2021/12/05 14:45:50;;;;;;;0.73;0.73;;;;;;;6.46;75.97;99810.88;5130174;28;20047;-77
2021/12/05 14:48:21;;;;;;;0.73;0.73;;;;;;;6.47;75.58;99814.34;5119937;28;20085;-77
2021/12/05 14:50:53;;;;;;;0.70;0.70;;;;;;;6.39;75.17;99808.47;5116514;28;20038;-78
2021/12/05 14:53:24;;;;;;;0.45;0.45;;;;;;;6.42;75.41;99818.81;5103304;28;20030;-80
2021/12/05 14:55:58;;;;;;;0.40;0.40;;;;;;;6.46;76.19;99818.69;5115442;28;20051;-78
2021/12/05 14:58:30;;;;;;;0.40;0.40;;;;;;;6.56;75.13;99828.91;5119643;28;20030;-78
2021/12/05 15:01:02;;;;;;;0.50;0.50;;;;;;;6.28;74.46;99822.63;5100288;28;20065;-79
2021/12/05 15:03:33;;;;;;;0.50;0.50;;;;;;;6.47;75.54;99830.00;5118499;28;20041;-80
2021/12/05 15:06:07;;;;;;;0.88;0.88;;;;;;;6.46;75.63;99830.88;5151909;28;20072;-79
2021/12/05 15:08:38;;;;;;;5.15;0.88;;;;;;;6.48;75.51;99839.53;5134775;28;20575;-82
2021/12/05 15:11:09;;;;;;;0.80;0.80;;;;;;;6.40;75.56;99841.47;5122555;28;20043;-80
2021/12/05 15:13:40;;;;;;;0.68;0.68;;;;;;;6.38;75.93;99845.84;5096568;28;20065;-78
2021/12/05 15:16:10;;;;;;;0.40;0.40;;;;;;;6.30;75.41;99846.88;5121228;28;20118;-80
2021/12/05 15:18:41;;;;;;;0.40;0.40;;;;;;;6.47;75.83;99848.22;5100109;28;20031;-78
2021/12/05 15:21:12;;;;;;;0.50;0.50;;;;;;;6.47;75.75;99845.63;5116459;28;20042;-80
2021/12/05 15:23:43;;;;;;;3.13;1.40;;;;;;;6.46;75.63;99851.72;5116435;28;20031;-79
2021/12/05 15:26:14;;;;;;;0.40;0.40;;;;;;;6.48;75.75;99862.09;5130966;28;20030;-80
2021/12/05 15:28:46;;;;;;;0.40;0.40;;;;;;;6.44;75.82;99864.81;5117620;28;20587;-79
2021/12/05 15:31:17;;;;;;;0.88;0.88;;;;;;;6.42;75.87;99865.72;5112339;28;20820;-78
2021/12/05 15:33:48;;;;;;;0.68;0.68;;;;;;;6.48;75.52;99868.19;5135533;28;20043;-81
2021/12/05 15:36:18;;;;;;;0.60;0.55;;;;;;;6.42;75.84;99868.31;5108132;28;20115;-79
2021/12/05 15:38:49;;;;;;;0.95;0.95;;;;;;;6.35;75.86;99875.44;5120074;28;20030;-80
2021/12/05 15:41:23;;;;;;;0.50;0.50;;;;;;;6.32;75.41;99875.50;5138244;28;20057;-80
2021/12/05 15:43:53;;;;;;;0.50;0.50;;;;;;;6.36;75.67;99881.50;5122869;28;20066;-80
2021/12/05 15:46:27;;;;;;;0.50;0.50;;;;;;;6.35;75.68;99875.44;5139912;28;20605;-79
2021/12/05 15:48:58;;;;;;;0.43;0.43;;;;;;;6.35;75.49;99890.19;5120748;28;20043;-79
2021/12/05 15:51:30;;;;;;;0.50;0.50;;;;;;;6.34;75.61;99888.47;5124873;28;20037;-79
2021/12/05 15:54:00;;;;;;;0.70;0.70;;;;;;;6.30;75.41;99898.13;5124777;28;20047;-79
2021/12/05 15:56:31;;;;;;;0.50;0.50;;;;;;;6.37;75.37;99899.69;5109186;28;20037;-78
2021/12/05 15:59:02;;;;;;;0.50;0.50;;;;;;;6.36;75.41;99904.94;5125691;28;20125;-81
2021/12/05 16:01:33;;;;;;;0.40;0.40;;;;;;;6.32;75.35;99906.75;5125130;28;20031;-83
2021/12/05 16:04:05;;;;;;;3.50;1.05;;;;;;;6.31;74.98;99912.88;5104552;28;20046;-78
2021/12/05 16:06:40;;;;;;;0.80;0.80;;;;;;;6.28;75.35;99905.97;5124318;28;20397;-79
2021/12/05 16:09:20;;;;;;;0.40;0.40;;;;;;;6.19;75.40;99927.03;5148032;28;20106;-80
2021/12/05 16:12:04;;;;;;;0.40;0.40;;;;;;;6.12;75.59;99922.84;5121517;28;20039;-81
2021/12/05 16:14:38;;;;;;;1.15;1.15;;;;;;;6.18;75.28;99929.66;5125222;28;20046;-78
2021/12/05 16:17:17;;;;;;;0.47;0.47;;;;;;;6.14;75.79;99934.09;5106762;28;20114;-79
2021/12/05 16:20:21;;;;;;;0.63;0.63;;;;;;;6.10;75.07;99935.03;5121651;28;20058;-79
2021/12/05 16:22:55;;;;;;;1.83;1.55;;;;;;;6.04;75.55;99937.78;5152153;28;20489;-80
2021/12/05 16:25:27;;;;;;;0.50;0.50;;;;;;;6.09;75.16;99943.72;5143164;28;20106;-80
2021/12/05 16:28:02;;;;;;;0.50;0.50;;;;;;;6.05;75.42;99942.09;5170165;28;20079;-83
2021/12/05 16:30:38;;;;;;;3.38;1.90;;;;;;;6.06;75.17;99951.63;5132084;28;20590;-81
2021/12/05 16:33:10;;;;;;;0.40;0.40;;;;;;;6.19;74.78;99955.69;5142692;28;20038;-81
2021/12/05 16:35:51;;;;;;;0.40;0.40;;;;;;;6.14;74.73;99955.78;5139112;28;20051;-81
2021/12/05 16:38:33;;;;;;;0.55;0.55;;;;;;;6.13;74.86;99963.63;5124981;28;20046;-80
2021/12/05 16:41:15;;;;;;;1.33;1.30;;;;;;;5.97;75.29;99963.91;5106811;29;20119;-81
2021/12/05 16:43:57;;;;;;;0.52;0.52;;;;;;;6.01;75.27;99969.06;5125805;28;20029;-80
2021/12/05 16:46:33;;;;;;;0.40;0.40;;;;;;;6.01;75.07;99971.69;5137318;28;20614;-79
2021/12/05 16:49:18;;;;;;;0.50;0.50;;;;;;;5.92;75.36;99981.34;5123881;28;20070;-81
2021/12/05 16:51:50;;;;;;;0.50;0.50;;;;;;;5.84;75.60;99978.03;5131549;28;20054;-81
2021/12/05 16:54:25;;;;;;;0.60;0.60;;;;;;;5.95;75.61;99983.06;5124114;28;20051;-81
2021/12/05 16:57:01;;;;;;;0.40;0.40;;;;;;;5.97;75.31;99986.47;5144537;28;20090;-82
2021/12/05 16:59:41;;;;;;;1.05;0.98;;;;;;;5.94;74.96;99995.22;5126326;28;20159;-80
2021/12/05 17:02:17;;;;;;;1.58;1.48;;;;;;;5.93;75.19;99997.84;5108700;28;20027;-78
2021/12/05 17:05:07;;;;;;;1.00;1.00;;;;;;;5.95;75.70;100003.91;5142884;28;20108;-82
2021/12/05 17:07:38;;;;;;;1.40;1.30;;;;;;;5.95;74.71;100012.56;5142823;28;20110;-82
2021/12/05 17:10:37;;;;;;;1.65;1.55;;;;;;;5.93;75.43;100016.09;5122144;28;20186;-80
2021/12/05 17:13:16;;;;;;;1.13;1.13;;;;;;;5.92;75.21;100014.38;5100017;28;20074;-82
2021/12/05 17:15:55;;;;;;;0.90;0.90;;;;;;;5.90;75.37;100024.81;5124086;28;20136;-80
2021/12/05 17:18:37;;;;;;;0.60;0.60;;;;;;;5.93;75.03;100023.91;5127545;28;20034;-83
2021/12/05 17:21:21;;;;;;;0.80;0.80;;;;;;;5.84;75.49;100030.13;5139466;28;20069;-79
2021/12/05 17:23:56;;;;;;;0.57;0.57;;;;;;;5.85;75.52;100034.44;5143521;28;20098;-79
2021/12/05 17:26:49;;;;;;;0.93;0.93;;;;;;;5.87;75.19;100035.28;5138744;28;20041;-82
2021/12/05 17:29:24;;;;;;;0.50;0.50;;;;;;;5.85;75.45;100042.25;5128984;28;20046;-79
2021/12/05 17:31:57;;;;;;;1.85;1.75;;;;;;;5.91;74.94;100036.06;5131815;28;20100;-80
2021/12/05 17:34:35;;;;;;;0.70;0.70;;;;;;;5.84;75.62;100037.94;5119059;28;20810;-81
2021/12/05 17:37:09;;;;;;;1.20;1.13;;;;;;;5.90;74.97;100049.97;5111216;28;20086;-79
2021/12/05 17:39:43;;;;;;;0.75;0.75;;;;;;;5.82;75.98;100048.38;5119359;28;20039;-79
2021/12/05 17:42:16;;;;;;;;;;;;;;;5.87;75.14;100057.88;5117609;28;20031;-78
2021/12/05 17:44:48;;;;;;;0.68;0.68;;;;;;;5.81;75.27;100064.03;5133652;28;20528;-79
2021/12/05 17:47:20;;;;;;;1.10;1.05;;;;;;;5.81;75.65;100071.84;5120895;28;20069;-78
2021/12/05 17:49:52;;;;;;;0.95;0.95;;;;;;;5.79;75.42;100073.63;5104768;28;20074;-82
2021/12/05 17:52:25;;;;;;;0.70;0.70;;;;;;;5.81;75.61;100072.69;5122471;28;20027;-80
2021/12/05 17:55:04;;;;;;;0.70;0.70;;;;;;;5.87;75.83;100076.09;5140930;28;20035;-80
2021/12/05 17:57:41;;;;;;;0.50;0.50;;;;;;;5.85;75.25;100078.69;5107358;28;20122;-81
2021/12/05 18:00:38;;;;;;;0.70;0.70;;;;;;;5.88;75.78;100083.00;5107712;28;20039;-80
2021/12/05 18:03:12;;;;;;;1.02;1.02;;;;;;;5.72;76.24;100088.47;5134909;28;20441;-79